Time,TemperatureF,DewpointF,PressureIn,WindDirection,WindDirectionDegrees,WindSpeedMPH,WindSpeedGustMPH,Humidity,HourlyPrecipIn,Conditions,Clouds,dailyrainin,SoftwareType,DateUTC
2013-02-01 00:04:00,11.1,8.0,29.29,West,270,8.3,-999.0,87,-99.99,,,0.00,Acu-Link.com,2013-02-01 05:04:00,
2013-02-01 00:19:00,10.9,7.8,29.29,West,270,9.4,-999.0,87,-99.99,,,0.00,Acu-Link.com,2013-02-01 05:19:00,
2013-02-01 00:34:00,10.9,8.1,29.30,WSW,247,9.4,-999.0,88,-99.99,,,0.00,Acu-Link.com,2013-02-01 05:34:00,
2013-02-01 00:49:00,10.9,7.8,29.30,WNW,292,6.8,-999.0,87,-99.99,,,0.00,Acu-Link.com,2013-02-01 05:49:00,
2013-02-01 01:05:00,10.9,8.8,29.31,WNW,292,8.3,-999.0,91,-99.99,,,0.00,Acu-Link.com,2013-02-01 06:05:00,
2013-02-01 01:20:00,10.8,8.2,29.32,WSW,247,6.8,-999.0,89,-99.99,,,0.00,Acu-Link.com,2013-02-01 06:20:00,
2013-02-01 01:35:00,10.8,8.2,29.33,West,270,10.4,-999.0,89,-99.99,,,0.00,Acu-Link.com,2013-02-01 06:35:00,
2013-02-01 01:51:00,10.6,8.5,29.34,West,270,8.9,-999.0,91,-99.99,,,0.00,Acu-Link.com,2013-02-01 06:51:00,
2013-02-01 02:06:00,10.2,8.1,29.33,WSW,247,9.9,-999.0,91,-99.99,,,0.00,Acu-Link.com,2013-02-01 07:06:00,
2013-02-01 02:21:00,10.0,8.1,29.34,West,270,8.3,-999.0,92,-99.99,,,0.00,Acu-Link.com,2013-02-01 07:21:00,
2013-02-01 02:36:00,9.7,7.9,29.34,West,270,8.3,-999.0,92,-99.99,,,0.00,Acu-Link.com,2013-02-01 07:36:00,
2013-02-01 02:51:00,9.0,7.2,29.35,West,270,8.9,-999.0,92,-99.99,,,0.00,Acu-Link.com,2013-02-01 07:51:00,
2013-02-01 03:07:00,8.8,7.0,29.36,WSW,247,8.3,-999.0,92,-99.99,,,0.00,Acu-Link.com,2013-02-01 08:07:00,
2013-02-01 03:22:00,8.1,6.3,29.36,WSW,247,11.9,-999.0,92,-99.99,,,0.00,Acu-Link.com,2013-02-01 08:22:00,
2013-02-01 03:37:00,7.3,5.5,29.37,WNW,292,10.9,-999.0,92,-99.99,,,0.00,Acu-Link.com,2013-02-01 08:37:00,
2013-02-01 04:17:00,6.8,4.5,29.39,WSW,247,10.9,-999.0,90,-99.99,,,0.00,Acu-Link.com,2013-02-01 09:17:00,
2013-02-01 04:32:00,6.4,4.1,29.38,West,270,11.9,-999.0,90,-99.99,,,0.00,Acu-Link.com,2013-02-01 09:32:00,
2013-02-01 04:47:00,6.4,4.6,29.39,WSW,247,3.7,-999.0,92,-99.99,,,0.00,Acu-Link.com,2013-02-01 09:47:00,
2013-02-01 05:02:00,6.1,4.3,29.41,West,270,8.9,-999.0,92,-99.99,,,0.00,Acu-Link.com,2013-02-01 10:02:00,
2013-02-01 05:18:00,5.7,3.4,29.41,SW,225,7.3,-999.0,90,-99.99,,,0.00,Acu-Link.com,2013-02-01 10:18:00,
2013-02-01 05:33:00,5.2,2.7,29.41,West,270,12.5,-999.0,89,-99.99,,,0.00,Acu-Link.com,2013-02-01 10:33:00,
2013-02-01 05:48:00,4.8,2.0,29.42,West,270,9.9,-999.0,88,-99.99,,,0.00,Acu-Link.com,2013-02-01 10:48:00,
2013-02-01 06:03:00,4.5,1.5,29.44,WNW,292,9.4,-999.0,87,-99.99,,,0.00,Acu-Link.com,2013-02-01 11:03:00,
2013-02-01 06:19:00,4.1,1.4,29.44,WNW,292,7.8,-999.0,88,-99.99,,,0.00,Acu-Link.com,2013-02-01 11:19:00,
2013-02-01 06:34:00,3.7,1.0,29.46,SW,225,11.4,-999.0,88,-99.99,,,0.00,Acu-Link.com,2013-02-01 11:34:00,
2013-02-01 06:49:00,3.6,0.6,29.46,WSW,247,15.0,-999.0,87,-99.99,,,0.00,Acu-Link.com,2013-02-01 11:49:00,
2013-02-01 07:04:00,3.2,0.2,29.46,SW,225,6.3,-999.0,87,-99.99,,,0.00,Acu-Link.com,2013-02-01 12:04:00,
2013-02-01 07:20:00,3.2,0.2,29.47,NW,315,10.4,-999.0,87,-99.99,,,0.00,Acu-Link.com,2013-02-01 12:20:00,
2013-02-01 07:35:00,3.0,0.3,29.47,SW,225,11.4,-999.0,88,-99.99,,,0.00,Acu-Link.com,2013-02-01 12:35:00,
2013-02-01 07:50:00,3.0,0.3,29.49,West,270,5.3,-999.0,88,-99.99,,,0.00,Acu-Link.com,2013-02-01 12:50:00,
2013-02-01 08:06:00,3.7,1.0,29.51,West,270,4.7,-999.0,88,-99.99,,,0.00,Acu-Link.com,2013-02-01 13:06:00,
2013-02-01 08:22:00,3.9,0.9,29.51,West,270,5.3,-999.0,87,-99.99,,,0.00,Acu-Link.com,2013-02-01 13:22:00,
2013-02-01 08:37:00,4.1,0.9,29.53,WSW,247,9.9,-999.0,86,-99.99,,,0.00,Acu-Link.com,2013-02-01 13:37:00,
2013-02-01 08:53:00,4.5,1.5,29.54,West,270,6.3,-999.0,87,-99.99,,,0.00,Acu-Link.com,2013-02-01 13:53:00,
2013-02-01 09:08:00,5.4,2.4,29.54,West,270,6.3,-999.0,87,-99.99,,,0.00,Acu-Link.com,2013-02-01 14:08:00,
2013-02-01 09:23:00,4.8,1.6,29.55,WSW,247,7.3,-999.0,86,-99.99,,,0.00,Acu-Link.com,2013-02-01 14:23:00,
2013-02-01 09:39:00,4.8,1.3,29.57,WSW,247,9.9,-999.0,85,-99.99,,,0.00,Acu-Link.com,2013-02-01 14:39:00,
2013-02-01 09:54:00,5.4,1.9,29.57,SW,225,8.3,-999.0,85,-99.99,,,0.00,Acu-Link.com,2013-02-01 14:54:00,
2013-02-01 10:11:00,6.1,2.3,29.57,West,270,11.9,-999.0,84,-99.99,,,0.00,Acu-Link.com,2013-02-01 15:11:00,
2013-02-01 10:27:00,5.7,1.9,29.58,WNW,292,12.5,-999.0,84,-99.99,,,0.00,Acu-Link.com,2013-02-01 15:27:00,
2013-02-01 10:42:00,5.7,2.2,29.59,WSW,247,10.4,-999.0,85,-99.99,,,0.00,Acu-Link.com,2013-02-01 15:42:00,
2013-02-01 10:57:00,6.1,2.6,29.60,SW,225,3.2,-999.0,85,-99.99,,,0.00,Acu-Link.com,2013-02-01 15:57:00,
2013-02-01 11:14:00,6.6,3.1,29.61,West,270,5.3,-999.0,85,-99.99,,,0.00,Acu-Link.com,2013-02-01 16:14:00,
2013-02-01 11:31:00,7.0,2.7,29.60,WSW,247,6.3,-999.0,82,-99.99,,,0.00,Acu-Link.com,2013-02-01 16:31:00,
2013-02-01 11:47:00,7.0,1.9,29.61,West,270,8.9,-999.0,79,-99.99,,,0.00,Acu-Link.com,2013-02-01 16:47:00,
2013-02-01 12:04:00,8.4,3.0,29.61,WSW,247,11.4,-999.0,78,-99.99,,,0.00,Acu-Link.com,2013-02-01 17:04:00,
2013-02-01 12:19:00,7.3,2.2,29.61,West,270,11.9,-999.0,79,-99.99,,,0.00,Acu-Link.com,2013-02-01 17:19:00,
2013-02-01 12:35:00,8.6,2.9,29.60,WSW,247,10.4,-999.0,77,-99.99,,,0.00,Acu-Link.com,2013-02-01 17:35:00,
2013-02-01 12:50:00,7.9,2.2,29.62,SW,225,10.9,-999.0,77,-99.99,,,0.00,Acu-Link.com,2013-02-01 17:50:00,
2013-02-01 13:06:00,8.4,2.7,29.62,WNW,292,11.4,-999.0,77,-99.99,,,0.00,Acu-Link.com,2013-02-01 18:06:00,
2013-02-01 13:21:00,8.2,2.8,29.61,West,270,15.0,-999.0,78,-99.99,,,0.00,Acu-Link.com,2013-02-01 18:21:00,
2013-02-01 13:37:00,9.0,3.6,29.62,WSW,247,6.3,-999.0,78,-99.99,,,0.00,Acu-Link.com,2013-02-01 18:37:00,
2013-02-01 13:52:00,8.2,2.8,29.62,WNW,292,8.9,-999.0,78,-99.99,,,0.00,Acu-Link.com,2013-02-01 18:52:00,
2013-02-01 14:08:00,7.3,2.5,29.63,WSW,247,10.9,-999.0,80,-99.99,,,0.00,Acu-Link.com,2013-02-01 19:08:00,
2013-02-01 14:23:00,8.1,4.3,29.64,West,270,6.8,-999.0,84,-99.99,,,0.00,Acu-Link.com,2013-02-01 19:23:00,
2013-02-01 14:38:00,8.4,4.1,29.65,WSW,247,10.9,-999.0,82,-99.99,,,0.00,Acu-Link.com,2013-02-01 19:38:00,
2013-02-01 14:55:00,8.2,3.1,29.65,WSW,247,4.2,-999.0,79,-99.99,,,0.00,Acu-Link.com,2013-02-01 19:55:00,
2013-02-01 15:11:00,7.2,2.1,29.66,North,0,5.8,-999.0,79,-99.99,,,0.00,Acu-Link.com,2013-02-01 20:11:00,
2013-02-01 15:26:00,7.0,2.2,29.66,SSW,202,6.8,-999.0,80,-99.99,,,0.00,Acu-Link.com,2013-02-01 20:26:00,
2013-02-01 15:41:00,7.5,2.1,29.66,ESE,112,3.7,-999.0,78,-99.99,,,0.00,Acu-Link.com,2013-02-01 20:41:00,
2013-02-01 15:57:00,6.8,1.4,29.68,WSW,247,7.8,-999.0,78,-99.99,,,0.00,Acu-Link.com,2013-02-01 20:57:00,
2013-02-01 16:12:00,6.4,2.1,29.67,West,270,10.9,-999.0,82,-99.99,,,0.00,Acu-Link.com,2013-02-01 21:12:00,
2013-02-01 16:28:00,6.3,1.2,29.69,West,270,4.7,-999.0,79,-99.99,,,0.00,Acu-Link.com,2013-02-01 21:28:00,
2013-02-01 16:43:00,5.4,0.6,29.70,SW,225,8.3,-999.0,80,-99.99,,,0.00,Acu-Link.com,2013-02-01 21:43:00,
2013-02-01 16:58:00,4.8,0.0,29.70,West,270,8.3,-999.0,80,-99.99,,,0.00,Acu-Link.com,2013-02-01 21:58:00,
2013-02-01 17:14:00,4.3,-0.2,29.70,NNW,337,5.3,-999.0,81,-99.99,,,0.00,Acu-Link.com,2013-02-01 22:14:00,
2013-02-01 17:29:00,3.9,-0.3,29.70,SSW,202,6.3,-999.0,82,-99.99,,,0.00,Acu-Link.com,2013-02-01 22:29:00,
2013-02-01 17:44:00,3.7,0.2,29.72,NE,45,3.2,-999.0,85,-99.99,,,0.00,Acu-Link.com,2013-02-01 22:44:00,
2013-02-01 17:59:00,3.6,0.4,29.73,West,270,4.2,-999.0,86,-99.99,,,0.00,Acu-Link.com,2013-02-01 22:59:00,
2013-02-01 18:14:00,3.2,0.5,29.74,NNW,337,6.3,-999.0,88,-99.99,,,0.00,Acu-Link.com,2013-02-01 23:14:00,
2013-02-01 18:30:00,2.8,-0.2,29.75,North,0,5.8,-999.0,87,-99.99,,,0.00,Acu-Link.com,2013-02-01 23:30:00,
2013-02-01 18:45:00,2.7,-0.5,29.76,ESE,112,4.2,-999.0,86,-99.99,,,0.00,Acu-Link.com,2013-02-01 23:45:00,
2013-02-01 19:00:00,2.8,-0.2,29.77,West,270,6.3,-999.0,87,-99.99,,,0.00,Acu-Link.com,2013-02-02 00:00:00,
2013-02-01 19:15:00,3.0,0.0,29.78,West,270,8.3,-999.0,87,-99.99,,,0.00,Acu-Link.com,2013-02-02 00:15:00,
2013-02-01 19:30:00,3.0,0.5,29.79,SW,225,3.7,-999.0,89,-99.99,,,0.00,Acu-Link.com,2013-02-02 00:30:00,
2013-02-01 19:46:00,2.7,-0.5,29.80,West,270,7.3,-999.0,86,-99.99,,,0.00,Acu-Link.com,2013-02-02 00:46:00,
2013-02-01 20:01:00,2.1,-1.6,29.81,West,270,6.8,-999.0,84,-99.99,,,0.00,Acu-Link.com,2013-02-02 01:01:00,
2013-02-01 20:16:00,1.8,-1.9,29.82,West,270,4.7,-999.0,84,-99.99,,,0.00,Acu-Link.com,2013-02-02 01:16:00,
2013-02-01 20:32:00,1.4,-2.3,29.83,WSW,247,10.9,-999.0,84,-99.99,,,0.00,Acu-Link.com,2013-02-02 01:32:00,
2013-02-01 20:47:00,1.4,-1.8,29.84,WSW,247,4.2,-999.0,86,-99.99,,,0.00,Acu-Link.com,2013-02-02 01:47:00,
2013-02-01 21:02:00,1.4,-1.8,29.84,WSW,247,4.7,-999.0,86,-99.99,,,0.00,Acu-Link.com,2013-02-02 02:02:00,
2013-02-01 21:17:00,1.0,-2.2,29.85,West,270,4.7,-999.0,86,-99.99,,,0.00,Acu-Link.com,2013-02-02 02:17:00,
2013-02-01 21:32:00,1.0,-2.2,29.86,West,270,4.2,-999.0,86,-99.99,,,0.00,Acu-Link.com,2013-02-02 02:32:00,
2013-02-01 21:48:00,0.9,-2.0,29.86,West,270,6.3,-999.0,87,-99.99,,,0.00,Acu-Link.com,2013-02-02 02:48:00,
2013-02-01 22:03:00,0.5,-2.7,29.87,West,270,2.7,-999.0,86,-99.99,,,0.00,Acu-Link.com,2013-02-02 03:03:00,
2013-02-01 22:18:00,0.5,-2.7,29.86,WNW,292,4.7,-999.0,86,-99.99,,,0.00,Acu-Link.com,2013-02-02 03:18:00,
2013-02-01 22:33:00,0.1,-3.1,29.87,West,270,3.7,-999.0,86,-99.99,,,0.00,Acu-Link.com,2013-02-02 03:33:00,
2013-02-01 22:49:00,0.0,-2.9,29.87,West,270,3.7,-999.0,87,-99.99,,,0.00,Acu-Link.com,2013-02-02 03:49:00,
2013-02-01 23:04:00,0.1,-2.8,29.88,WNW,292,3.2,-999.0,87,-99.99,,,0.00,Acu-Link.com,2013-02-02 04:04:00,
2013-02-01 23:19:00,0.5,-2.7,29.88,WSW,247,3.2,-999.0,86,-99.99,,,0.00,Acu-Link.com,2013-02-02 04:19:00,
2013-02-01 23:34:00,0.0,-3.2,29.89,NNW,337,2.7,-999.0,86,-99.99,,,0.00,Acu-Link.com,2013-02-02 04:34:00,
2013-02-01 23:49:00,-0.6,-3.5,29.89,WSW,247,4.2,-999.0,87,-99.99,,,0.00,Acu-Link.com,2013-02-02 04:49:00,